Time;durP1;ratioP1;P1;durP2;ratioP2;P2;SDS_P1;SDS_P2;PMS_P1;PMS_P2;Temp;Humidity;BMP_temperature;BMP_pressure;BME280_temperature;BME280_humidity;BME280_pressure;Samples;Min_cycle;Max_cycle;Signal;HPM_P1;HPM_P2
2021/12/04 00:02:12;;;;;;;5.75;5.10;;;1.00;57.80;;;;;;5035573;28;20461;-51
2021/12/04 00:04:41;;;;;;;9.13;6.03;;;1.00;53.90;;;;;;5054483;28;20195;-51
2021/12/04 00:07:09;;;;;;;6.10;5.13;;;1.00;67.10;;;;;;5046675;28;20454;-52
2021/12/04 00:09:37;;;;;;;6.33;5.43;;;1.00;68.00;;;;;;5041730;28;20836;-51
2021/12/04 00:12:06;;;;;;;7.43;6.20;;;1.00;66.10;;;;;;5047244;28;20465;-52
2021/12/04 00:14:34;;;;;;;5.30;4.80;;;1.00;66.10;;;;;;5047999;28;20469;-51
2021/12/04 00:17:03;;;;;;;5.23;4.73;;;1.10;66.90;;;;;;5039925;28;20522;-51
2021/12/04 00:19:30;;;;;;;6.33;5.30;;;1.10;67.80;;;;;;5044663;28;20611;-51
2021/12/04 00:21:58;;;;;;;7.43;5.67;;;1.10;72.10;;;;;;5051626;28;20956;-52
2021/12/04 00:24:24;;;;;;;5.27;4.87;;;1.10;73.60;;;;;;5039243;28;20499;-51
2021/12/04 00:26:53;;;;;;;11.50;5.30;;;1.20;77.00;;;;;;5047777;28;20501;-50
2021/12/04 00:29:20;;;;;;;4.97;4.53;;;1.20;80.00;;;;;;5041605;28;20562;-52
2021/12/04 00:31:49;;;;;;;5.47;4.80;;;1.20;87.60;;;;;;5044700;28;20462;-51
2021/12/04 00:34:19;;;;;;;6.23;5.27;;;1.20;93.10;;;;;;5042896;28;20473;-51
2021/12/04 00:37:04;;;;;;;5.33;4.20;;;1.20;95.70;;;;;;5042668;28;20577;-51
2021/12/04 00:50:28;;;;;;;7.13;4.70;;;1.20;99.90;;;;;;5038798;28;20437;-51
2021/12/04 00:52:55;;;;;;;6.30;4.77;;;1.30;99.90;;;;;;5039378;28;20846;-51
2021/12/04 00:55:22;;;;;;;5.13;4.63;;;1.20;99.90;;;;;;5032154;28;20640;-51
2021/12/04 00:57:48;;;;;;;5.60;5.00;;;1.20;99.90;;;;;;5048073;28;20539;-51
2021/12/04 01:00:15;;;;;;;5.27;4.37;;;1.30;99.90;;;;;;5044382;28;20482;-51
2021/12/04 01:02:43;;;;;;;6.07;5.00;;;1.30;99.90;;;;;;5040095;28;20471;-51
2021/12/04 01:05:09;;;;;;;5.17;4.77;;;1.30;99.90;;;;;;5042445;28;20534;-52
2021/12/04 01:07:37;;;;;;;5.10;4.60;;;1.20;99.90;;;;;;5035167;28;20935;-51
2021/12/04 01:10:06;;;;;;;7.43;4.00;;;1.30;99.90;;;;;;5037759;28;20498;-52
2021/12/04 01:12:34;;;;;;;5.40;4.90;;;1.20;99.90;;;;;;5051840;28;20457;-50
2021/12/04 01:15:00;;;;;;;4.63;4.00;;;1.30;99.90;;;;;;5057139;28;20514;-52
2021/12/04 01:17:27;;;;;;;4.80;4.40;;;1.30;99.90;;;;;;5055341;28;20513;-52
2021/12/04 01:19:53;;;;;;;4.90;4.33;;;1.30;99.90;;;;;;5034326;28;20494;-52
2021/12/04 01:22:22;;;;;;;4.50;4.13;;;1.30;99.90;;;;;;5037535;28;20497;-52
2021/12/04 01:24:50;;;;;;;4.90;4.50;;;1.30;99.90;;;;;;5043334;28;20800;-52
2021/12/04 01:27:16;;;;;;;7.97;5.20;;;1.30;99.90;;;;;;5032300;28;20491;-52
2021/12/04 01:29:43;;;;;;;7.63;5.37;;;1.30;99.90;;;;;;5039748;28;20489;-52
2021/12/04 01:32:10;;;;;;;7.03;5.13;;;1.30;98.60;;;;;;5035470;28;20466;-52
2021/12/04 01:34:38;;;;;;;9.40;5.13;;;1.30;97.00;;;;;;5037303;28;20599;-51
2021/12/04 01:37:05;;;;;;;5.80;5.03;;;1.30;95.70;;;;;;5047707;28;20532;-51
2021/12/04 01:39:32;;;;;;;7.13;4.23;;;1.30;97.00;;;;;;5041518;28;20493;-52
2021/12/04 01:42:00;;;;;;;7.57;4.80;;;1.30;97.50;;;;;;5034992;28;20479;-52
2021/12/04 01:44:26;;;;;;;5.03;4.53;;;1.30;99.90;;;;;;5033028;28;20487;-52
2021/12/04 01:46:55;;;;;;;5.63;4.80;;;1.30;92.80;;;;;;5035676;28;20502;-52
2021/12/04 01:49:22;;;;;;;4.50;4.00;;;1.30;93.10;;;;;;5040485;28;20985;-52
2021/12/04 01:51:49;;;;;;;5.20;4.70;;;1.30;87.10;;;;;;5041220;28;20485;-52
2021/12/04 01:54:16;;;;;;;4.90;4.33;;;1.20;95.00;;;;;;5053501;28;20894;-52
2021/12/04 01:56:42;;;;;;;6.63;4.40;;;1.20;87.80;;;;;;5035739;28;20518;-51
2021/12/04 01:59:10;;;;;;;8.33;4.90;;;1.20;85.40;;;;;;5040140;28;20482;-52
2021/12/04 02:01:37;;;;;;;6.10;4.43;;;1.20;83.50;;;;;;5042845;28;20508;-52
2021/12/04 02:04:04;;;;;;;9.27;4.87;;;1.30;76.30;;;;;;5041776;28;20498;-51
2021/12/04 02:06:31;;;;;;;5.20;4.70;;;1.20;83.30;;;;;;5040178;28;20569;-52
2021/12/04 02:08:57;;;;;;;4.93;4.53;;;1.20;81.90;;;;;;5035751;28;20513;-51
2021/12/04 02:11:24;;;;;;;6.40;4.73;;;1.20;81.60;;;;;;5038738;28;20505;-51
2021/12/04 02:13:50;;;;;;;6.57;5.13;;;1.20;78.70;;;;;;5044671;28;20460;-52
2021/12/04 02:16:20;;;;;;;5.23;4.67;;;1.20;73.90;;;;;;5038874;28;20473;-52
2021/12/04 02:18:47;;;;;;;13.03;5.33;;;1.20;76.00;;;;;;5035929;28;20486;-51
2021/12/04 02:21:16;;;;;;;7.20;5.07;;;1.20;77.40;;;;;;5053232;28;20528;-52
2021/12/04 02:23:42;;;;;;;4.83;4.27;;;1.20;75.20;;;;;;5037510;28;20511;-52
2021/12/04 02:26:09;;;;;;;4.80;4.40;;;1.20;75.30;;;;;;5046866;28;20535;-51
2021/12/04 02:28:36;;;;;;;4.53;4.20;;;1.20;70.80;;;;;;5042997;28;20462;-52
2021/12/04 02:31:03;;;;;;;5.10;4.70;;;1.20;67.90;;;;;;5044507;28;20459;-51
2021/12/04 02:33:30;;;;;;;6.13;5.27;;;1.20;68.40;;;;;;5039550;28;20458;-51
2021/12/04 02:35:57;;;;;;;4.77;4.37;;;1.20;67.80;;;;;;5046847;28;20481;-51
2021/12/04 02:38:26;;;;;;;7.53;5.30;;;1.20;71.70;;;;;;5039997;28;20490;-52
2021/12/04 02:40:54;;;;;;;6.23;5.17;;;1.20;66.70;;;;;;5046712;28;20459;-51
2021/12/04 02:43:20;;;;;;;8.13;5.20;;;1.20;69.60;;;;;;5048331;28;20462;-51
2021/12/04 02:45:47;;;;;;;5.30;4.90;;;1.20;67.70;;;;;;5053279;28;20516;-52
2021/12/04 02:48:14;;;;;;;8.07;5.17;;;1.20;66.10;;;;;;5034669;28;20494;-52
2021/12/04 02:50:41;;;;;;;5.97;5.37;;;1.20;69.20;;;;;;5042900;28;20466;-51
2021/12/04 02:53:08;;;;;;;7.30;5.00;;;1.20;63.30;;;;;;5043005;28;20493;-51
2021/12/04 02:55:36;;;;;;;4.67;4.37;;;1.20;66.00;;;;;;5057226;28;20484;-51
2021/12/04 02:58:03;;;;;;;5.50;4.30;;;1.20;62.40;;;;;;5034873;28;20483;-51
2021/12/04 03:00:30;;;;;;;5.80;4.80;;;1.20;62.10;;;;;;5041036;28;20890;-51
2021/12/04 03:02:57;;;;;;;7.73;5.83;;;1.20;62.10;;;;;;5037841;28;20520;-49
2021/12/04 03:05:26;;;;;;;7.33;5.40;;;1.20;62.00;;;;;;5035391;28;20482;-49
2021/12/04 03:07:53;;;;;;;5.50;5.00;;;1.20;60.20;;;;;;5039361;28;20458;-50
2021/12/04 03:10:21;;;;;;;5.03;4.63;;;1.20;55.30;;;;;;5039877;28;20517;-49
2021/12/04 03:12:49;;;;;;;4.90;4.50;;;1.30;54.00;;;;;;5048686;28;20454;-51
2021/12/04 03:15:16;;;;;;;4.97;4.67;;;1.30;55.20;;;;;;5050280;28;20900;-52
2021/12/04 03:17:43;;;;;;;5.20;4.70;;;1.30;57.10;;;;;;5045779;28;20492;-52
2021/12/04 03:20:11;;;;;;;5.17;4.67;;;1.30;53.80;;;;;;5050829;28;20462;-52
2021/12/04 03:22:40;;;;;;;5.87;5.07;;;1.30;54.60;;;;;;5052770;28;20461;-52
2021/12/04 03:25:07;;;;;;;5.37;4.87;;;1.30;51.90;;;;;;5048896;28;20554;-52
2021/12/04 03:27:34;;;;;;;5.87;4.87;;;1.40;50.60;;;;;;5047688;28;20859;-52
2021/12/04 03:30:05;;;;;;;5.37;4.87;;;1.40;49.40;;;;;;5038944;28;20548;-51
2021/12/04 03:40:05;;;;;;;4.97;4.53;;;1.40;51.30;;;;;;5028376;28;20588;-52
2021/12/04 03:40:59;;;;;;;9.90;5.37;;;1.50;49.50;;;;;;5050169;28;20460;-52
2021/12/04 03:43:27;;;;;;;5.90;5.10;;;1.50;50.90;;;;;;5039321;28;20458;-51
2021/12/04 03:45:58;;;;;;;5.87;5.27;;;1.50;49.40;;;;;;5040193;28;20566;-52
2021/12/04 03:51:21;;;;;;;7.67;5.97;;;1.60;48.80;;;;;;5005914;28;20483;-51
2021/12/04 03:53:49;;;;;;;6.13;5.57;;;1.60;48.00;;;;;;5032753;28;20639;-52
2021/12/04 03:56:19;;;;;;;5.33;4.97;;;1.60;52.50;;;;;;5038397;28;21072;-51
2021/12/04 03:58:46;;;;;;;6.20;5.60;;;1.60;53.50;;;;;;5044848;28;20486;-52
2021/12/04 04:01:14;;;;;;;6.40;5.27;;;1.60;54.10;;;;;;5047632;28;20470;-51
2021/12/04 04:03:41;;;;;;;5.90;5.37;;;1.70;50.40;;;;;;5036521;28;20952;-52
2021/12/04 04:06:07;;;;;;;5.43;4.90;;;1.70;53.00;;;;;;5044231;28;20539;-52
2021/12/04 04:08:34;;;;;;;5.23;4.83;;;1.70;55.50;;;;;;5039529;28;20516;-52
2021/12/04 04:11:00;;;;;;;5.03;4.50;;;1.70;56.50;;;;;;5059511;28;20465;-55
2021/12/04 04:13:27;;;;;;;8.70;5.20;;;1.70;61.90;;;;;;5059339;28;20462;-55
2021/12/04 04:15:54;;;;;;;4.83;4.43;;;1.70;61.70;;;;;;5043486;28;20493;-54
2021/12/04 04:18:22;;;;;;;6.60;5.27;;;1.70;62.00;;;;;;5054817;28;20491;-55
2021/12/04 04:20:49;;;;;;;5.83;5.00;;;1.70;62.00;;;;;;5053351;28;20462;-56
2021/12/04 04:23:15;;;;;;;5.37;4.87;;;1.70;62.00;;;;;;5033464;28;20463;-56
2021/12/04 04:25:42;;;;;;;7.50;5.00;;;1.70;64.50;;;;;;5039554;28;20490;-51
2021/12/04 04:28:09;;;;;;;5.90;4.80;;;1.70;63.90;;;;;;5034527;28;20509;-52
2021/12/04 04:30:37;;;;;;;5.00;4.57;;;1.70;67.00;;;;;;5033662;28;20520;-51
2021/12/04 04:33:04;;;;;;;6.83;5.13;;;1.70;73.40;;;;;;5030729;28;20471;-51
2021/12/04 04:35:33;;;;;;;5.43;4.90;;;1.70;73.00;;;;;;5053623;28;20853;-52
2021/12/04 04:38:09;;;;;;;4.67;4.37;;;1.70;71.00;;;;;;5040803;28;20478;-51
2021/12/04 05:00:06;;;;;;;5.67;4.90;;;1.70;76.80;;;;;;5037657;28;21183;-51
2021/12/04 05:11:05;;;;;;;5.80;5.40;;;1.80;77.70;;;;;;5040668;28;20812;-51
2021/12/04 05:13:32;;;;;;;6.23;5.73;;;1.80;78.60;;;;;;5042044;28;20457;-52
2021/12/04 05:15:59;;;;;;;6.60;6.00;;;1.80;75.50;;;;;;5034102;28;20487;-51
2021/12/04 05:18:36;;;;;;;7.07;6.20;;;1.80;76.20;;;;;;5041470;28;20572;-51
2021/12/04 05:21:05;;;;;;;8.63;6.33;;;1.80;70.10;;;;;;5052213;28;20453;-52
2021/12/04 05:23:35;;;;;;;5.73;5.33;;;1.80;74.00;;;;;;5044753;28;20473;-51
2021/12/04 05:26:03;;;;;;;6.57;5.90;;;1.80;74.60;;;;;;5048830;28;21032;-51
2021/12/04 05:28:29;;;;;;;6.07;5.57;;;1.80;76.00;;;;;;5038753;28;20466;-51
2021/12/04 05:30:56;;;;;;;5.90;5.30;;;1.80;75.90;;;;;;5040573;28;20464;-51
2021/12/04 05:33:23;;;;;;;8.37;6.37;;;1.80;77.10;;;;;;5050715;28;20204;-51
2021/12/04 05:35:50;;;;;;;6.43;5.83;;;1.80;76.00;;;;;;5033748;28;20509;-50
2021/12/04 05:38:17;;;;;;;6.30;5.80;;;1.80;76.60;;;;;;5035643;28;20485;-49
2021/12/04 05:40:46;;;;;;;6.43;5.93;;;1.80;76.80;;;;;;5034385;28;20497;-51
2021/12/04 05:43:13;;;;;;;6.40;5.80;;;1.80;74.90;;;;;;5050868;28;20496;-51
2021/12/04 05:45:44;;;;;;;6.70;6.00;;;1.90;75.50;;;;;;5039034;28;20490;-51
2021/12/04 05:48:13;;;;;;;6.87;6.03;;;1.90;74.70;;;;;;5048137;28;20453;-50
2021/12/04 05:50:58;;;;;;;7.30;5.97;;;1.90;73.30;;;;;;5050764;28;20541;-50
2021/12/04 05:53:27;;;;;;;7.07;6.43;;;1.90;74.90;;;;;;5047138;28;20595;-50
2021/12/04 05:55:55;;;;;;;5.30;4.93;;;1.90;80.60;;;;;;5037964;28;20859;-51
2021/12/04 05:58:24;;;;;;;5.80;5.40;;;1.90;81.20;;;;;;5048148;28;20534;-51
2021/12/04 06:00:51;;;;;;;6.30;5.60;;;1.90;78.40;;;;;;5039131;28;20880;-50
2021/12/04 06:03:18;;;;;;;5.27;4.87;;;2.00;80.90;;;;;;5043173;28;20499;-51
2021/12/04 06:05:45;;;;;;;8.53;5.10;;;2.00;78.50;;;;;;5045353;28;20482;-51
2021/12/04 06:08:11;;;;;;;6.90;6.30;;;2.00;78.00;;;;;;5054082;28;20462;-50
2021/12/04 06:10:38;;;;;;;7.13;6.20;;;2.00;80.50;;;;;;5035138;28;20486;-50
2021/12/04 06:13:06;;;;;;;5.70;5.27;;;2.00;80.90;;;;;;5037771;28;20517;-56
2021/12/04 06:15:33;;;;;;;7.53;6.00;;;2.00;83.10;;;;;;5035656;28;21000;-51
2021/12/04 06:18:00;;;;;;;6.97;6.30;;;2.00;84.80;;;;;;5039196;28;20483;-57
2021/12/04 06:23:11;;;;;;;6.60;6.10;;;2.00;89.30;;;;;;5031917;28;20532;-50
2021/12/04 06:25:38;;;;;;;7.50;6.73;;;2.00;89.10;;;;;;5047073;28;20514;-57
2021/12/04 06:28:06;;;;;;;6.83;6.10;;;2.00;90.30;;;;;;5040939;28;20511;-47
2021/12/04 06:30:35;;;;;;;8.10;6.73;;;2.00;90.60;;;;;;5035807;28;20458;-56
2021/12/04 06:33:03;;;;;;;6.80;6.30;;;2.00;91.80;;;;;;5036485;28;20467;-51
2021/12/04 06:35:31;;;;;;;7.00;6.40;;;2.00;96.30;;;;;;5042874;28;20478;-51
2021/12/04 06:37:58;;;;;;;7.70;6.20;;;2.00;97.80;;;;;;5035884;28;20481;-55
2021/12/04 06:40:26;;;;;;;6.97;6.37;;;2.00;95.80;;;;;;5033174;28;20466;-48
2021/12/04 06:42:54;;;;;;;7.40;6.70;;;2.00;99.90;;;;;;5041167;28;20475;-49
2021/12/04 06:45:23;;;;;;;7.20;6.50;;;2.00;91.80;;;;;;5039233;28;20481;-56
2021/12/04 06:47:55;;;;;;;7.87;7.17;;;2.00;98.00;;;;;;5040737;28;20463;-46
2021/12/04 06:50:30;;;;;;;7.60;7.00;;;2.00;97.00;;;;;;5031773;28;20463;-47
2021/12/04 06:52:58;;;;;;;8.73;7.93;;;2.00;98.40;;;;;;5041437;28;20465;-46
2021/12/04 06:55:28;;;;;;;8.03;7.30;;;2.00;95.70;;;;;;5056430;28;21006;-46
2021/12/04 06:57:55;;;;;;;7.27;6.57;;;2.00;99.80;;;;;;5049883;28;20819;-47
2021/12/04 07:00:25;;;;;;;8.40;7.70;;;2.00;97.80;;;;;;5031466;28;20881;-46
2021/12/04 07:02:51;;;;;;;8.53;7.83;;;2.00;99.90;;;;;;5031107;28;20936;-48
2021/12/04 07:05:18;;;;;;;8.40;7.70;;;2.00;99.90;;;;;;5045361;28;20517;-46
2021/12/04 07:07:45;;;;;;;9.00;8.10;;;1.90;99.90;;;;;;5040061;28;20486;-46
2021/12/04 07:10:11;;;;;;;8.87;8.07;;;2.00;99.90;;;;;;5049107;28;20512;-47
2021/12/04 07:12:38;;;;;;;10.47;7.40;;;1.90;99.90;;;;;;5045785;28;20909;-55
2021/12/04 07:15:06;;;;;;;9.40;8.50;;;2.00;99.90;;;;;;5036267;28;20510;-56
2021/12/04 07:17:35;;;;;;;9.60;8.80;;;2.00;99.90;;;;;;5045540;28;20540;-50
2021/12/04 07:20:02;;;;;;;8.83;8.03;;;2.00;99.90;;;;;;5040167;28;20486;-50
2021/12/04 07:22:29;;;;;;;9.80;8.10;;;2.00;99.90;;;;;;5038873;28;20511;-50
2021/12/04 07:24:56;;;;;;;12.00;8.77;;;2.00;99.90;;;;;;5055475;28;20940;-51
2021/12/04 07:27:23;;;;;;;10.10;9.10;;;2.00;99.90;;;;;;5044672;28;20465;-51
2021/12/04 07:29:49;;;;;;;10.47;9.43;;;2.00;99.90;;;;;;5045091;28;20543;-51
2021/12/04 07:32:16;;;;;;;10.37;9.27;;;1.90;99.90;;;;;;5041166;28;21380;-50
2021/12/04 07:34:44;;;;;;;10.93;9.83;;;1.90;99.90;;;;;;5043990;28;20836;-51
2021/12/04 07:37:10;;;;;;;11.20;10.10;;;2.00;99.90;;;;;;5048474;28;21176;-51
2021/12/04 07:39:37;;;;;;;11.37;9.40;;;2.00;99.90;;;;;;5044003;28;20563;-50
2021/12/04 07:42:04;;;;;;;9.90;9.00;;;2.00;99.90;;;;;;5045843;28;20897;-51
2021/12/04 07:44:32;;;;;;;10.37;9.40;;;2.00;99.90;;;;;;5043537;28;20498;-51
2021/12/04 07:47:00;;;;;;;10.17;9.20;;;2.00;99.90;;;;;;5035578;28;20516;-50
2021/12/04 07:49:27;;;;;;;9.83;8.87;;;2.00;99.90;;;;;;5042853;28;20494;-51
2021/12/04 07:51:55;;;;;;;10.70;9.60;;;2.00;99.90;;;;;;5043616;28;20459;-51
2021/12/04 07:54:21;;;;;;;9.60;8.80;;;2.00;99.90;;;;;;5042262;28;20536;-51
2021/12/04 07:56:48;;;;;;;9.73;8.53;;;2.00;99.90;;;;;;5035648;28;20494;-51
2021/12/04 07:59:14;;;;;;;10.20;9.07;;;2.00;99.90;;;;;;5036871;28;20514;-51
2021/12/04 08:01:41;;;;;;;10.40;9.20;;;2.00;99.90;;;;;;5039061;28;20463;-51
2021/12/04 08:04:08;;;;;;;14.30;9.40;;;2.00;99.90;;;;;;5044855;28;20825;-50
2021/12/04 08:06:35;;;;;;;10.80;9.70;;;2.00;99.90;;;;;;5036116;28;20849;-50
2021/12/04 08:09:03;;;;;;;12.30;9.27;;;2.00;99.90;;;;;;5035358;28;20464;-52
2021/12/04 08:11:30;;;;;;;11.20;9.80;;;2.00;99.90;;;;;;5043683;28;20547;-52
2021/12/04 08:13:57;;;;;;;12.67;10.30;;;2.10;99.90;;;;;;5046141;28;20450;-51
2021/12/04 08:16:25;;;;;;;11.93;9.80;;;2.10;99.90;;;;;;5047601;28;20485;-51
2021/12/04 08:18:52;;;;;;;9.40;8.43;;;2.10;99.90;;;;;;5053823;28;20481;-51
2021/12/04 08:21:18;;;;;;;11.83;9.13;;;2.10;99.90;;;;;;5045560;28;20553;-52
2021/12/04 08:23:45;;;;;;;10.83;9.20;;;2.10;99.90;;;;;;5047387;28;20519;-51
2021/12/04 08:26:13;;;;;;;9.83;8.67;;;2.10;99.90;;;;;;5042946;28;20552;-53
2021/12/04 08:28:40;;;;;;;11.20;9.07;;;2.10;99.90;;;;;;5050195;28;20961;-50
2021/12/04 08:31:07;;;;;;;11.20;9.70;;;2.10;99.90;;;;;;5041298;28;20458;-53
2021/12/04 08:33:33;;;;;;;10.07;9.07;;;2.10;99.90;;;;;;5043319;28;20962;-50
2021/12/04 08:36:03;;;;;;;10.60;9.43;;;2.10;99.90;;;;;;5034372;28;21037;-55
2021/12/04 08:38:31;;;;;;;8.93;8.07;;;2.00;99.90;;;;;;5048776;28;20515;-56
2021/12/04 08:40:57;;;;;;;10.97;9.80;;;2.10;99.90;;;;;;5040654;28;20469;-56
2021/12/04 08:43:26;;;;;;;12.37;9.30;;;2.00;99.90;;;;;;5049006;28;20584;-56
2021/12/04 08:45:53;;;;;;;11.07;8.90;;;2.00;99.90;;;;;;5034700;28;20566;-56
2021/12/04 08:48:20;;;;;;;9.80;8.63;;;2.10;99.90;;;;;;5033424;28;20473;-56
2021/12/04 08:50:46;;;;;;;10.70;9.60;;;2.10;99.90;;;;;;5033192;28;20469;-56
2021/12/04 08:53:13;;;;;;;10.57;9.07;;;2.10;99.90;;;;;;5042614;28;20478;-56
2021/12/04 08:55:42;;;;;;;9.80;8.80;;;2.10;99.90;;;;;;5035364;28;20490;-57
2021/12/04 08:58:10;;;;;;;9.80;8.90;;;2.10;99.90;;;;;;5036793;28;20473;-56
2021/12/04 09:00:41;;;;;;;15.77;9.03;;;2.10;99.90;;;;;;5049829;28;20748;-56
2021/12/04 09:03:09;;;;;;;10.20;8.87;;;2.10;99.90;;;;;;5042762;28;20576;-55
2021/12/04 09:05:37;;;;;;;9.67;8.67;;;2.10;99.90;;;;;;5037549;28;20481;-56
2021/12/04 09:08:05;;;;;;;10.37;9.37;;;2.10;99.90;;;;;;5039130;28;20473;-55
2021/12/04 09:10:32;;;;;;;13.33;9.77;;;2.20;99.90;;;;;;5044929;28;20517;-46
2021/12/04 09:12:59;;;;;;;10.77;9.17;;;2.20;99.90;;;;;;5035294;28;20482;-45
2021/12/04 09:15:28;;;;;;;10.80;9.43;;;2.20;99.90;;;;;;5036153;28;20505;-51
2021/12/04 09:17:56;;;;;;;14.80;9.60;;;2.20;99.90;;;;;;5038045;28;20462;-51
2021/12/04 09:20:22;;;;;;;9.80;8.70;;;2.20;99.90;;;;;;5034049;28;20929;-51
2021/12/04 09:22:50;;;;;;;14.40;8.63;;;2.20;99.90;;;;;;5039510;28;21110;-51
2021/12/04 09:25:23;;;;;;;9.17;8.37;;;2.20;99.90;;;;;;5030768;28;20510;-50
2021/12/04 09:28:09;;;;;;;11.10;8.73;;;2.30;99.90;;;;;;5032940;28;20528;-51
2021/12/04 09:30:53;;;;;;;9.43;8.50;;;2.30;99.90;;;;;;5031804;28;20982;-51
2021/12/04 10:20:54;;;;;;;33.17;20.00;;;3.00;99.90;;;;;;5043689;28;20492;-51
2021/12/04 10:34:45;;;;;;;15.27;10.27;;;2.90;99.90;;;;;;4978369;28;20519;-50
2021/12/04 10:37:17;;;;;;;18.17;11.40;;;2.90;99.90;;;;;;5024350;28;20459;-52
2021/12/04 10:39:45;;;;;;;11.30;9.90;;;2.80;99.90;;;;;;5034571;28;20470;-50
2021/12/04 10:42:15;;;;;;;13.33;11.00;;;2.90;99.90;;;;;;5046042;28;20967;-49
2021/12/04 10:44:48;;;;;;;11.70;9.80;;;2.80;99.90;;;;;;5044501;28;20454;-50
2021/12/04 10:47:21;;;;;;;12.03;10.00;;;2.90;99.90;;;;;;5039659;28;20990;-50
2021/12/04 10:49:56;;;;;;;14.80;10.57;;;2.90;99.90;;;;;;5043663;28;20449;-50
2021/12/04 10:52:31;;;;;;;14.93;10.37;;;2.90;99.90;;;;;;5039029;28;20544;-50
2021/12/04 10:55:13;;;;;;;12.27;10.73;;;2.90;99.90;;;;;;5027958;28;21100;-51
2021/12/04 11:00:37;;;;;;;10.03;9.03;;;2.90;99.90;;;;;;5028359;28;20560;-51
2021/12/04 11:03:17;;;;;;;13.97;12.03;;;2.80;99.90;;;;;;5034192;28;20461;-51
2021/12/04 11:06:19;;;;;;;12.77;10.17;;;2.80;99.90;;;;;;5043426;28;21107;-51
2021/12/04 11:22:50;;;;;;;11.47;10.30;;;2.80;99.90;;;;;;5035197;28;21152;-50
2021/12/04 11:28:27;;;;;;;15.27;12.10;;;2.90;99.90;;;;;;5007862;28;20474;-51
2021/12/04 11:36:37;;;;;;;17.00;13.10;;;2.90;99.90;;;;;;5031376;28;20507;-50
2021/12/04 11:39:22;;;;;;;20.97;13.97;;;2.90;99.90;;;;;;5035796;28;20461;-50
2021/12/04 11:42:01;;;;;;;16.37;12.63;;;2.90;99.90;;;;;;5042369;28;21225;-50
2021/12/04 11:44:44;;;;;;;16.93;13.30;;;2.90;99.90;;;;;;5046211;28;20477;-51
2021/12/04 11:47:11;;;;;;;13.40;11.90;;;2.90;99.90;;;;;;5034822;28;20461;-50
2021/12/04 11:49:38;;;;;;;13.50;11.90;;;2.90;99.90;;;;;;5040804;28;20454;-50
2021/12/04 11:52:11;;;;;;;16.90;13.60;;;2.90;99.90;;;;;;5040393;28;20870;-51
2021/12/04 11:54:46;;;;;;;15.17;13.20;;;2.90;99.90;;;;;;5041073;28;20462;-50
2021/12/04 11:57:15;;;;;;;13.63;12.13;;;2.90;99.90;;;;;;5039225;28;20465;-50
2021/12/04 11:59:45;;;;;;;14.60;13.10;;;2.90;99.90;;;;;;5040871;28;20506;-50
2021/12/04 12:02:19;;;;;;;16.70;13.83;;;2.90;99.90;;;;;;5042569;28;20539;-50
2021/12/04 12:04:48;;;;;;;25.60;18.63;;;2.80;99.90;;;;;;5033881;28;20517;-50
2021/12/04 12:07:17;;;;;;;25.10;18.93;;;2.80;99.90;;;;;;5040511;28;20486;-50
2021/12/04 12:09:45;;;;;;;19.20;16.10;;;2.80;99.90;;;;;;5040440;28;20481;-50
2021/12/04 12:12:16;;;;;;;20.60;14.20;;;2.80;99.90;;;;;;5036988;28;20502;-50
2021/12/04 12:14:49;;;;;;;16.90;13.30;;;2.80;99.90;;;;;;5053873;28;20962;-50
2021/12/04 12:17:17;;;;;;;19.57;15.90;;;2.80;99.90;;;;;;5042350;28;20825;-49
2021/12/04 12:19:52;;;;;;;14.40;12.90;;;2.80;99.90;;;;;;5038271;28;20493;-46
2021/12/04 12:22:29;;;;;;;13.83;12.50;;;2.80;99.90;;;;;;5046965;28;20529;-47
2021/12/04 12:25:11;;;;;;;13.60;11.53;;;2.80;99.90;;;;;;5045680;28;20458;-48
2021/12/04 12:27:52;;;;;;;13.13;11.77;;;2.80;99.90;;;;;;5040104;28;20450;-47
2021/12/04 12:33:21;;;;;;;12.20;11.00;;;2.90;99.90;;;;;;5048005;28;21093;-47
2021/12/04 12:36:03;;;;;;;12.27;11.07;;;2.90;99.90;;;;;;5036897;28;20502;-46
2021/12/04 12:38:37;;;;;;;12.80;11.50;;;2.90;99.90;;;;;;5035396;28;20446;-47
2021/12/04 12:41:07;;;;;;;13.07;11.23;;;2.90;99.90;;;;;;5043299;28;20564;-46
2021/12/04 12:43:39;;;;;;;12.40;11.23;;;3.00;99.90;;;;;;5045086;28;20454;-47
2021/12/04 12:46:08;;;;;;;12.20;10.93;;;3.00;99.90;;;;;;5032887;28;21033;-48
2021/12/04 12:48:44;;;;;;;13.30;10.87;;;3.00;99.90;;;;;;5032577;28;20510;-46
2021/12/04 12:51:11;;;;;;;13.10;11.80;;;3.00;99.90;;;;;;5035949;28;20892;-47
2021/12/04 12:53:44;;;;;;;11.17;10.07;;;3.00;73.80;;;;;;5042834;28;20524;-46
2021/12/04 12:56:13;;;;;;;13.63;12.30;;;3.00;79.20;;;;;;5044480;28;20493;-47
2021/12/04 12:58:44;;;;;;;12.23;11.03;;;3.00;99.90;;;;;;5046437;28;20454;-48
2021/12/04 13:12:23;;;;;;;10.40;9.30;;;3.00;99.90;;;;;;5039415;28;20470;-47
2021/12/04 13:14:53;;;;;;;12.40;11.20;;;3.00;99.90;;;;;;5032555;28;20447;-47
2021/12/04 13:17:25;;;;;;;12.17;11.00;;;3.00;99.90;;;;;;5044091;28;20482;-47
2021/12/04 13:19:55;;;;;;;13.50;12.03;;;3.00;99.90;;;;;;5041516;28;20561;-46
2021/12/04 13:22:23;;;;;;;12.03;10.80;;;3.00;99.90;;;;;;5037110;28;20509;-47
2021/12/04 13:24:52;;;;;;;17.43;13.30;;;3.00;99.90;;;;;;5035488;28;20565;-49
2021/12/04 13:29:50;;;;;;;12.23;11.00;;;3.10;99.90;;;;;;5050530;28;20441;-49
2021/12/04 13:32:29;;;;;;;11.53;10.43;;;3.00;95.50;;;;;;5037568;28;20971;-49
2021/12/04 13:34:55;;;;;;;11.63;10.53;;;3.00;27.10;;;;;;5052263;28;20495;-48
2021/12/04 13:37:27;;;;;;;11.03;10.03;;;3.10;20.00;;;;;;5046211;28;20482;-46
2021/12/04 13:39:57;;;;;;;12.00;10.80;;;2.90;60.60;;;;;;5036685;28;20478;-47
2021/12/04 13:42:25;;;;;;;9.87;9.07;;;3.00;39.10;;;;;;5041161;28;20884;-47
2021/12/04 13:44:57;;;;;;;11.10;10.10;;;3.00;56.70;;;;;;5047647;28;20450;-47
2021/12/04 13:47:25;;;;;;;11.40;10.27;;;3.10;57.60;;;;;;5044677;28;20788;-50
2021/12/04 13:49:57;;;;;;;9.00;8.30;;;3.10;74.00;;;;;;5049132;28;20541;-47
2021/12/04 13:52:25;;;;;;;8.90;8.10;;;2.90;94.40;;;;;;5045295;28;20818;-46
2021/12/04 13:54:54;;;;;;;10.07;8.33;;;2.90;94.90;;;;;;5048667;28;20827;-46
2021/12/04 13:57:21;;;;;;;8.63;7.93;;;2.80;98.10;;;;;;5043157;28;20454;-46
2021/12/04 13:59:48;;;;;;;9.53;8.63;;;2.80;99.80;;;;;;5042712;28;20588;-46
2021/12/04 14:02:20;;;;;;;9.03;8.23;;;2.80;89.60;;;;;;5049655;28;20446;-46
2021/12/04 14:04:57;;;;;;;8.80;7.90;;;2.80;80.90;;;;;;5048942;28;20442;-47
2021/12/04 14:07:24;;;;;;;8.80;7.90;;;2.80;76.80;;;;;;5047094;28;20449;-47
2021/12/04 14:09:50;;;;;;;9.50;8.70;;;2.80;63.70;;;;;;5040278;28;20461;-47
2021/12/04 14:12:17;;;;;;;8.47;7.77;;;2.70;62.10;;;;;;5045594;28;20520;-48
2021/12/04 14:14:43;;;;;;;9.00;8.20;;;2.70;67.10;;;;;;5043230;28;20450;-46
2021/12/04 14:17:12;;;;;;;9.30;8.40;;;2.70;54.60;;;;;;5044455;28;20502;-46
2021/12/04 14:19:40;;;;;;;9.40;8.60;;;2.70;53.40;;;;;;5054268;28;20442;-47
2021/12/04 14:22:10;;;;;;;11.43;10.20;;;2.70;48.50;;;;;;5052406;28;20516;-46
2021/12/04 14:24:43;;;;;;;10.27;9.17;;;2.70;44.30;;;;;;5051270;28;20511;-45
2021/12/04 14:27:11;;;;;;;9.43;8.53;;;2.70;43.90;;;;;;5053983;28;20554;-49
2021/12/04 14:29:41;;;;;;;9.90;9.00;;;2.70;38.20;;;;;;5047766;28;20446;-46
2021/12/04 14:32:09;;;;;;;10.33;8.13;;;2.70;39.10;;;;;;5043759;28;20974;-47
2021/12/04 14:34:36;;;;;;;9.67;8.80;;;2.70;40.70;;;;;;5052242;28;20470;-46
2021/12/04 14:37:07;;;;;;;8.30;7.60;;;2.70;37.40;;;;;;5048229;28;21181;-47
2021/12/04 14:39:35;;;;;;;9.50;8.67;;;2.70;41.30;;;;;;5058477;28;20822;-46
2021/12/04 14:42:11;;;;;;;8.97;8.27;;;2.70;49.60;;;;;;5051417;28;20528;-47
2021/12/04 14:44:37;;;;;;;7.60;7.00;;;2.60;56.90;;;;;;5051037;28;20462;-47
2021/12/04 14:47:05;;;;;;;8.03;7.43;;;2.60;51.40;;;;;;5050133;28;20492;-47
2021/12/04 14:49:32;;;;;;;8.87;8.07;;;2.60;44.90;;;;;;5050370;28;20947;-50
2021/12/04 14:51:59;;;;;;;8.83;8.10;;;2.60;42.90;;;;;;5048765;28;20435;-48
2021/12/04 14:54:32;;;;;;;7.40;6.87;;;2.60;40.80;;;;;;5049710;28;20456;-46
2021/12/04 14:57:01;;;;;;;10.50;9.67;;;2.60;28.50;;;;;;5054725;28;20502;-47
2021/12/04 14:59:32;;;;;;;8.50;7.80;;;2.60;22.80;;;;;;5050916;28;20519;-46
2021/12/04 15:01:59;;;;;;;8.17;7.57;;;2.60;92.60;;;;;;5051581;28;20654;-47
2021/12/04 15:04:26;;;;;;;8.93;8.23;;;2.70;23.90;;;;;;5045976;28;20443;-47
2021/12/04 15:06:52;;;;;;;8.60;7.80;;;2.60;75.50;;;;;;5046391;28;20706;-46
2021/12/04 15:09:19;;;;;;;7.00;6.50;;;2.60;25.40;;;;;;5054436;28;20509;-49
2021/12/04 15:11:49;;;;;;;6.43;6.00;;;2.60;31.90;;;;;;5067563;28;20489;-47
2021/12/04 15:14:20;;;;;;;7.47;6.80;;;2.50;63.40;;;;;;5035082;28;20451;-47
2021/12/04 15:16:50;;;;;;;8.43;7.63;;;2.50;67.10;;;;;;5046611;28;20474;-47
2021/12/04 15:19:22;;;;;;;10.23;9.27;;;2.50;61.90;;;;;;5045481;28;20470;-47
2021/12/04 15:21:53;;;;;;;8.80;8.00;;;2.50;59.70;;;;;;5046656;28;20454;-48
2021/12/04 15:24:24;;;;;;;10.43;9.53;;;2.50;52.00;;;;;;5047470;28;20460;-51
2021/12/04 15:26:53;;;;;;;10.00;9.10;;;2.40;32.10;;;;;;5044955;28;20544;-48
2021/12/04 15:29:24;;;;;;;10.47;9.47;;;2.40;32.00;;;;;;5040347;28;20459;-48
2021/12/04 15:31:53;;;;;;;8.93;8.23;;;2.40;85.90;;;;;;5044113;28;20984;-48